createdAt,value
2022-11-29T00:00:25.109Z,19.87
2022-11-29T00:01:25.102Z,19.87
2022-11-29T00:02:25.190Z,19.87
2022-11-29T00:03:25.206Z,19.84
2022-11-29T00:04:25.754Z,19.82
2022-11-29T00:05:25.148Z,19.82
2022-11-29T00:06:25.072Z,19.85
2022-11-29T00:07:25.122Z,19.90
2022-11-29T00:08:25.028Z,19.92
2022-11-29T00:09:25.011Z,19.93
2022-11-29T00:10:25.040Z,19.94
2022-11-29T00:11:25.020Z,19.97
2022-11-29T00:12:25.004Z,19.99
2022-11-29T00:13:24.962Z,19.97
2022-11-29T00:14:25.014Z,19.99
2022-11-29T00:15:25.791Z,20.00
2022-11-29T00:16:24.966Z,20.03
2022-11-29T00:17:25.043Z,20.03
2022-11-29T00:18:25.565Z,20.03
2022-11-29T00:19:25.454Z,20.04
2022-11-29T00:20:24.954Z,20.02
2022-11-29T00:21:25.786Z,20.00
2022-11-29T00:22:24.923Z,19.99
2022-11-29T00:23:24.976Z,19.96
2022-11-29T00:24:25.720Z,19.96
2022-11-29T00:25:24.831Z,19.93
2022-11-29T00:26:24.840Z,19.93
2022-11-29T00:27:24.793Z,19.90
2022-11-29T00:28:25.063Z,19.87
2022-11-29T00:29:24.820Z,19.85
2022-11-29T00:30:25.627Z,19.85
2022-11-29T00:31:24.777Z,19.87
2022-11-29T00:32:24.835Z,19.84
2022-11-29T00:33:25.500Z,19.82
2022-11-29T00:34:24.738Z,19.84
2022-11-29T00:35:24.748Z,19.85
2022-11-29T00:36:25.535Z,19.82
2022-11-29T00:37:24.708Z,19.84
2022-11-29T00:38:25.698Z,19.81
2022-11-29T00:39:24.677Z,19.79
2022-11-29T00:40:24.683Z,19.77
2022-11-29T00:41:24.740Z,19.77
2022-11-29T00:42:24.644Z,19.79
2022-11-29T00:43:26.181Z,19.79
2022-11-29T00:44:24.652Z,19.78
2022-11-29T00:45:25.234Z,19.77
2022-11-29T00:46:24.742Z,19.78
2022-11-29T00:47:25.488Z,19.75
2022-11-29T00:48:24.631Z,19.77
2022-11-29T00:49:24.692Z,19.77
2022-11-29T00:50:25.716Z,19.78
2022-11-29T00:51:25.594Z,19.77
2022-11-29T00:52:24.562Z,19.75
2022-11-29T00:53:24.614Z,19.77
2022-11-29T00:54:24.517Z,19.79
2022-11-29T00:55:24.526Z,19.78
2022-11-29T00:56:24.490Z,19.77
2022-11-29T00:57:24.498Z,19.78
2022-11-29T00:58:24.481Z,19.78
2022-11-29T00:59:24.507Z,19.79
2022-11-29T01:00:24.517Z,19.79
2022-11-29T01:01:24.502Z,19.81
2022-11-29T01:02:24.525Z,19.81
2022-11-29T01:03:24.420Z,19.82
2022-11-29T01:04:24.423Z,19.79
2022-11-29T01:05:24.431Z,19.77
2022-11-29T01:06:24.436Z,19.78
2022-11-29T01:07:24.513Z,19.77
2022-11-29T01:08:24.347Z,19.77
2022-11-29T01:09:24.403Z,19.78
2022-11-29T01:10:24.370Z,19.77
2022-11-29T01:11:24.428Z,19.75
2022-11-29T01:12:24.328Z,19.72
2022-11-29T01:13:24.382Z,19.70
2022-11-29T01:14:24.310Z,19.70
2022-11-29T01:15:24.294Z,19.70
2022-11-29T01:16:24.451Z,19.70
2022-11-29T01:17:24.320Z,19.67
2022-11-29T01:18:24.528Z,19.70
2022-11-29T01:19:24.388Z,19.66
2022-11-29T01:20:24.328Z,19.64
2022-11-29T01:21:24.237Z,19.64
2022-11-29T01:22:24.294Z,19.63
2022-11-29T01:23:24.249Z,19.64
2022-11-29T01:24:24.271Z,19.63
2022-11-29T01:25:24.209Z,19.62
2022-11-29T01:26:24.475Z,19.64
2022-11-29T01:27:24.236Z,19.66
2022-11-29T01:28:24.196Z,19.67
2022-11-29T01:29:24.192Z,19.70
2022-11-29T01:30:24.543Z,19.67
2022-11-29T01:31:24.215Z,19.67
2022-11-29T01:32:24.110Z,19.66
2022-11-29T01:33:24.112Z,19.66
2022-11-29T01:34:24.120Z,19.64
2022-11-29T01:35:24.135Z,19.64
2022-11-29T01:36:24.138Z,19.64
2022-11-29T01:37:24.145Z,19.66
2022-11-29T01:38:24.047Z,19.67
2022-11-29T01:39:24.775Z,19.70
2022-11-29T01:40:24.058Z,19.70
2022-11-29T01:41:24.068Z,19.64
2022-11-29T01:42:24.075Z,19.64
2022-11-29T01:43:23.974Z,19.63
2022-11-29T01:44:23.988Z,19.64
2022-11-29T01:45:24.036Z,19.64
2022-11-29T01:46:24.090Z,19.64
2022-11-29T01:47:23.981Z,19.62
2022-11-29T01:48:23.953Z,19.62
2022-11-29T01:49:23.956Z,19.59
2022-11-29T01:50:23.973Z,19.56
2022-11-29T01:51:23.905Z,19.56
2022-11-29T01:52:23.972Z,19.56
2022-11-29T01:53:24.021Z,19.56
2022-11-29T01:54:23.884Z,19.59
2022-11-29T01:55:23.938Z,19.59
2022-11-29T01:56:23.846Z,19.60
2022-11-29T01:57:23.922Z,19.60
2022-11-29T01:58:23.915Z,19.64
2022-11-29T01:59:23.920Z,19.64
2022-11-29T02:00:23.976Z,19.66
2022-11-29T02:01:23.788Z,19.64
2022-11-29T02:02:23.816Z,19.64
2022-11-29T02:03:23.855Z,19.66
2022-11-29T02:04:23.900Z,19.66
2022-11-29T02:05:23.858Z,19.66
2022-11-29T02:06:23.808Z,19.66
2022-11-29T02:07:23.845Z,19.64
2022-11-29T02:08:23.711Z,19.64
2022-11-29T02:09:23.738Z,19.62
2022-11-29T02:10:24.619Z,19.62
2022-11-29T02:11:23.744Z,19.60
2022-11-29T02:12:23.701Z,19.59
2022-11-29T02:13:23.659Z,19.62
2022-11-29T02:14:23.663Z,19.62
2022-11-29T02:15:23.666Z,19.63
2022-11-29T02:16:23.736Z,19.60
2022-11-29T02:17:23.685Z,19.59
2022-11-29T02:18:23.688Z,19.56
2022-11-29T02:19:23.651Z,19.55
2022-11-29T02:20:23.650Z,19.53
2022-11-29T02:21:23.603Z,19.55
2022-11-29T02:22:23.605Z,19.56
2022-11-29T02:23:23.574Z,19.57
2022-11-29T02:24:23.582Z,19.60
2022-11-29T02:25:23.587Z,19.59
2022-11-29T02:26:23.533Z,19.60
2022-11-29T02:27:23.543Z,19.59
2022-11-29T02:28:23.537Z,19.57
2022-11-29T02:29:23.508Z,19.57
2022-11-29T02:30:23.511Z,19.57
2022-11-29T02:31:23.467Z,19.57
2022-11-29T02:32:23.473Z,19.57
2022-11-29T02:33:23.563Z,19.57
2022-11-29T02:34:23.487Z,19.57
2022-11-29T02:35:23.454Z,19.60
2022-11-29T02:36:23.499Z,19.60
2022-11-29T02:37:23.404Z,19.60
2022-11-29T02:38:23.424Z,19.59
2022-11-29T02:39:23.473Z,19.59
2022-11-29T02:40:23.423Z,19.60
2022-11-29T02:41:23.385Z,19.60
2022-11-29T02:42:23.397Z,19.62
2022-11-29T02:43:23.347Z,19.60
2022-11-29T02:44:23.408Z,19.62
2022-11-29T02:45:23.358Z,19.62
2022-11-29T02:46:23.441Z,19.63
2022-11-29T02:47:23.331Z,19.63
2022-11-29T02:48:23.335Z,19.63
2022-11-29T02:49:23.343Z,19.62
2022-11-29T02:50:23.351Z,19.63
2022-11-29T02:51:23.359Z,19.63
2022-11-29T02:52:23.304Z,19.64
2022-11-29T02:53:23.264Z,19.66
2022-11-29T02:54:23.274Z,19.63
2022-11-29T02:55:23.278Z,19.64
2022-11-29T02:56:23.690Z,19.64
2022-11-29T02:57:23.395Z,19.64
2022-11-29T02:58:23.235Z,19.64
2022-11-29T02:59:23.220Z,19.67
2022-11-29T03:00:23.252Z,19.70
2022-11-29T03:01:23.217Z,19.70
2022-11-29T03:02:23.684Z,19.66
2022-11-29T03:03:23.277Z,19.62
2022-11-29T03:04:23.139Z,19.59
2022-11-29T03:05:23.242Z,19.57
2022-11-29T03:06:23.108Z,19.60
2022-11-29T03:07:23.277Z,19.60
2022-11-29T03:08:23.161Z,19.60
2022-11-29T03:09:23.125Z,19.62
2022-11-29T03:10:23.229Z,19.62
2022-11-29T03:11:25.074Z,19.62
2022-11-29T03:12:23.043Z,19.63
2022-11-29T03:13:23.155Z,19.64
2022-11-29T03:14:23.119Z,19.64
2022-11-29T03:15:23.023Z,19.64
2022-11-29T03:16:23.033Z,19.63
2022-11-29T03:17:22.974Z,19.67
2022-11-29T03:18:22.980Z,19.67
2022-11-29T03:19:22.978Z,19.70
2022-11-29T03:20:23.002Z,19.71
2022-11-29T03:21:22.941Z,19.74
2022-11-29T03:22:22.955Z,19.72
2022-11-29T03:23:22.949Z,19.71
2022-11-29T03:24:22.922Z,19.72
2022-11-29T03:25:22.973Z,19.74
2022-11-29T03:26:22.937Z,19.74
2022-11-29T03:27:22.940Z,19.72
2022-11-29T03:28:22.892Z,19.67
2022-11-29T03:29:22.924Z,19.62
2022-11-29T03:30:22.905Z,19.60
2022-11-29T03:31:22.943Z,19.60
2022-11-29T03:32:22.927Z,19.60
2022-11-29T03:33:22.922Z,19.62
2022-11-29T03:34:22.843Z,19.62
2022-11-29T03:35:22.832Z,19.62
2022-11-29T03:36:22.860Z,19.64
2022-11-29T03:37:22.810Z,19.66
2022-11-29T03:38:22.869Z,19.66
2022-11-29T03:39:22.757Z,19.67
2022-11-29T03:40:22.760Z,19.67
2022-11-29T03:41:22.765Z,19.67
2022-11-29T03:42:22.733Z,19.70
2022-11-29T03:43:22.793Z,19.71
2022-11-29T03:44:22.811Z,19.71
2022-11-29T03:45:22.728Z,19.72
2022-11-29T03:46:22.748Z,19.74
2022-11-29T03:47:22.664Z,19.72
2022-11-29T03:48:22.676Z,19.71
2022-11-29T03:49:22.680Z,19.72
2022-11-29T03:50:22.724Z,19.71
2022-11-29T03:51:22.636Z,19.71
2022-11-29T03:52:22.591Z,19.71
2022-11-29T03:53:22.602Z,19.72
2022-11-29T03:54:22.607Z,19.72
2022-11-29T03:55:22.673Z,19.75
2022-11-29T03:56:22.669Z,19.74
2022-11-29T03:57:22.590Z,19.74
2022-11-29T03:58:22.536Z,19.75
2022-11-29T03:59:22.534Z,19.75
2022-11-29T04:00:22.585Z,19.75
2022-11-29T04:01:22.653Z,19.75
2022-11-29T04:02:22.584Z,19.75
2022-11-29T04:03:22.527Z,19.75
2022-11-29T04:04:22.470Z,19.74
2022-11-29T04:05:22.480Z,19.74
2022-11-29T04:06:22.478Z,19.75
2022-11-29T04:07:22.496Z,19.74
2022-11-29T04:08:22.587Z,19.75
2022-11-29T04:09:22.445Z,19.74
2022-11-29T04:10:22.406Z,19.77
2022-11-29T04:11:22.405Z,19.78
2022-11-29T04:12:22.445Z,19.77
2022-11-29T04:13:22.450Z,19.75
2022-11-29T04:14:22.497Z,19.77
2022-11-29T04:15:22.361Z,19.79
2022-11-29T04:16:22.431Z,19.82
2022-11-29T04:17:22.353Z,19.84
2022-11-29T04:18:22.447Z,19.84
2022-11-29T04:19:22.421Z,19.82
2022-11-29T04:20:22.362Z,19.85
2022-11-29T04:21:22.303Z,19.85
2022-11-29T04:22:22.371Z,19.85
2022-11-29T04:23:22.383Z,19.84
2022-11-29T04:24:22.278Z,19.79
2022-11-29T04:25:22.395Z,19.79
2022-11-29T04:26:22.398Z,19.78
2022-11-29T04:27:22.298Z,19.75
2022-11-29T04:28:22.324Z,19.72
2022-11-29T04:29:22.257Z,19.72
2022-11-29T04:30:22.323Z,19.70
2022-11-29T04:31:22.319Z,19.70
2022-11-29T04:32:22.244Z,19.70
2022-11-29T04:33:22.183Z,19.71
2022-11-29T04:34:22.245Z,19.72
2022-11-29T04:35:22.165Z,19.71
2022-11-29T04:36:22.164Z,19.74
2022-11-29T04:37:22.182Z,19.75
2022-11-29T04:38:22.241Z,19.77
2022-11-29T04:39:22.118Z,19.78
2022-11-29T04:40:22.129Z,19.79
2022-11-29T04:41:22.156Z,19.78
2022-11-29T04:42:22.098Z,19.79
2022-11-29T04:43:22.171Z,19.79
2022-11-29T04:44:22.101Z,19.79
2022-11-29T04:45:22.082Z,19.79
2022-11-29T04:46:22.104Z,19.79
2022-11-29T04:47:22.069Z,19.79
2022-11-29T04:48:22.276Z,19.78
2022-11-29T04:49:22.086Z,19.81
2022-11-29T04:50:22.138Z,19.79
2022-11-29T04:51:21.995Z,19.82
2022-11-29T04:52:22.055Z,19.84
2022-11-29T04:53:22.005Z,19.85
2022-11-29T04:54:22.064Z,19.87
2022-11-29T04:55:29.275Z,19.87
2022-11-29T04:56:21.983Z,19.87
2022-11-29T04:57:21.931Z,19.87
2022-11-29T04:58:21.947Z,19.87
2022-11-29T04:59:21.974Z,19.89
2022-11-29T05:00:22.006Z,19.89
2022-11-29T05:01:22.055Z,19.87
2022-11-29T05:02:21.997Z,19.89
2022-11-29T05:03:21.873Z,19.92
2022-11-29T05:04:21.925Z,19.90
2022-11-29T05:05:22.653Z,19.89
2022-11-29T05:06:21.952Z,19.85
2022-11-29T05:07:21.997Z,19.81
2022-11-29T05:08:21.907Z,19.79
2022-11-29T05:09:21.802Z,19.79
2022-11-29T05:10:21.870Z,19.79
2022-11-29T05:11:26.477Z,19.81
2022-11-29T05:12:21.782Z,19.82
2022-11-29T05:13:21.788Z,19.84
2022-11-29T05:14:21.795Z,19.85
2022-11-29T05:15:21.710Z,19.87
2022-11-29T05:16:21.747Z,19.89
2022-11-29T05:17:21.716Z,19.90
2022-11-29T05:18:21.735Z,19.92
2022-11-29T05:19:21.684Z,19.87
2022-11-29T05:20:21.741Z,19.87
2022-11-29T05:21:21.696Z,19.85
2022-11-29T05:22:21.645Z,19.82
2022-11-29T05:23:21.655Z,19.81
2022-11-29T05:24:21.651Z,19.81
2022-11-29T05:25:21.661Z,19.79
2022-11-29T05:26:21.630Z,19.82
2022-11-29T05:27:21.575Z,19.82
2022-11-29T05:28:21.549Z,19.82
2022-11-29T05:29:21.558Z,19.82
2022-11-29T05:30:21.555Z,19.82
2022-11-29T05:31:21.578Z,19.84
2022-11-29T05:32:21.558Z,19.84
2022-11-29T05:33:21.510Z,19.87
2022-11-29T05:34:21.468Z,19.87
2022-11-29T05:35:21.615Z,19.85
2022-11-29T05:36:21.500Z,19.84
2022-11-29T05:37:21.480Z,19.84
2022-11-29T05:38:21.494Z,19.85
2022-11-29T05:39:21.455Z,19.85
2022-11-29T05:40:21.389Z,19.85
2022-11-29T05:41:21.460Z,19.85
2022-11-29T05:42:21.428Z,19.85
2022-11-29T05:43:21.373Z,19.84
2022-11-29T05:44:21.393Z,19.82
2022-11-29T05:45:21.381Z,19.77
2022-11-29T05:46:21.448Z,19.77
2022-11-29T05:47:21.359Z,19.74
2022-11-29T05:48:21.301Z,19.74
2022-11-29T05:49:21.317Z,19.75
2022-11-29T05:50:21.316Z,19.77
2022-11-29T05:51:21.320Z,19.78
2022-11-29T05:52:21.288Z,19.78
2022-11-29T05:53:21.339Z,19.78
2022-11-29T05:54:21.277Z,19.79
2022-11-29T05:55:21.221Z,19.82
2022-11-29T05:56:21.253Z,19.82
2022-11-29T05:57:21.303Z,19.84
2022-11-29T05:58:25.656Z,19.85
2022-11-29T05:59:21.271Z,19.85
2022-11-29T06:00:21.185Z,19.84
2022-11-29T06:01:21.223Z,19.85
2022-11-29T06:02:21.279Z,19.85
2022-11-29T06:03:21.248Z,19.84
2022-11-29T06:04:21.216Z,19.84
2022-11-29T06:05:21.187Z,19.84
2022-11-29T06:06:21.176Z,19.85
2022-11-29T06:07:21.216Z,19.84
2022-11-29T06:08:21.141Z,19.84
2022-11-29T06:09:21.203Z,19.81
2022-11-29T06:10:21.115Z,19.82
2022-11-29T06:11:21.120Z,19.81
2022-11-29T06:12:21.528Z,19.78
2022-11-29T06:13:21.072Z,19.77
2022-11-29T06:14:21.181Z,19.77
2022-11-29T06:15:21.086Z,19.78
2022-11-29T06:16:21.177Z,19.77
2022-11-29T06:17:20.990Z,19.81
2022-11-29T06:18:21.360Z,19.79
2022-11-29T06:19:21.032Z,19.75
2022-11-29T06:20:21.193Z,19.72
2022-11-29T06:21:20.969Z,19.74
2022-11-29T06:22:21.026Z,19.72
2022-11-29T06:23:20.933Z,19.74
2022-11-29T06:24:25.701Z,19.75
2022-11-29T06:25:20.948Z,19.74
2022-11-29T06:26:20.952Z,19.77
2022-11-29T06:27:20.918Z,19.77
2022-11-29T06:28:20.967Z,19.77
2022-11-29T06:29:20.872Z,19.77
2022-11-29T06:30:20.939Z,19.77
2022-11-29T06:31:20.974Z,19.77
2022-11-29T06:32:21.274Z,19.77
2022-11-29T06:33:20.873Z,19.77
2022-11-29T06:34:20.873Z,19.78
2022-11-29T06:35:20.874Z,19.77
2022-11-29T06:36:20.880Z,19.77
2022-11-29T06:37:20.887Z,19.78
2022-11-29T06:38:22.746Z,19.77
2022-11-29T06:39:20.896Z,19.78
2022-11-29T06:40:20.905Z,19.77
2022-11-29T06:41:20.806Z,19.78
2022-11-29T06:42:20.812Z,19.78
2022-11-29T06:43:20.784Z,19.79
2022-11-29T06:44:20.825Z,19.78
2022-11-29T06:45:20.831Z,19.79
2022-11-29T06:46:20.765Z,19.81
2022-11-29T06:47:20.733Z,19.82
2022-11-29T06:48:20.734Z,19.82
2022-11-29T06:49:20.741Z,19.84
2022-11-29T06:50:20.751Z,19.85
2022-11-29T06:51:20.871Z,19.85
2022-11-29T06:52:20.659Z,19.85
2022-11-29T06:53:20.643Z,19.82
2022-11-29T06:54:20.669Z,19.81
2022-11-29T06:55:20.676Z,19.81
2022-11-29T06:56:20.687Z,19.81
2022-11-29T06:57:20.706Z,19.79
2022-11-29T06:58:20.597Z,19.78
2022-11-29T06:59:20.602Z,19.79
2022-11-29T07:00:20.610Z,19.79
2022-11-29T07:01:20.644Z,19.78
2022-11-29T07:02:20.659Z,19.78
2022-11-29T07:03:20.629Z,19.78
2022-11-29T07:04:20.533Z,19.79
2022-11-29T07:05:20.573Z,19.79
2022-11-29T07:06:20.558Z,19.79
2022-11-29T07:07:20.626Z,19.81
2022-11-29T07:08:20.783Z,19.79
2022-11-29T07:09:20.565Z,19.81
2022-11-29T07:10:20.479Z,19.81
2022-11-29T07:11:20.484Z,19.81
2022-11-29T07:12:20.492Z,19.82
2022-11-29T07:13:20.508Z,19.81
2022-11-29T07:14:22.241Z,19.79
2022-11-29T07:15:20.510Z,19.81
2022-11-29T07:16:20.466Z,19.79
2022-11-29T07:17:20.421Z,19.78
2022-11-29T07:18:20.424Z,19.78
2022-11-29T07:19:20.420Z,19.79
2022-11-29T07:20:20.428Z,19.78
2022-11-29T07:21:20.449Z,19.78
2022-11-29T07:22:20.359Z,19.77
2022-11-29T07:23:20.362Z,19.77
2022-11-29T07:24:20.368Z,19.75
2022-11-29T07:25:20.365Z,19.77
2022-11-29T07:26:20.384Z,19.75
2022-11-29T07:27:20.334Z,19.78
2022-11-29T07:28:20.283Z,19.79
2022-11-29T07:29:20.294Z,19.78
2022-11-29T07:30:20.291Z,19.78
2022-11-29T07:31:20.304Z,19.77
2022-11-29T07:32:20.268Z,19.78
2022-11-29T07:33:20.329Z,19.79
2022-11-29T07:34:20.243Z,19.78
2022-11-29T07:35:20.229Z,19.78
2022-11-29T07:36:20.192Z,19.77
2022-11-29T07:37:20.256Z,19.78
2022-11-29T07:38:20.197Z,19.78
2022-11-29T07:39:20.208Z,19.78
2022-11-29T07:40:20.162Z,19.79
2022-11-29T07:41:20.113Z,19.81
2022-11-29T07:42:20.269Z,19.81
2022-11-29T07:43:20.130Z,19.79
2022-11-29T07:44:20.143Z,19.78
2022-11-29T07:45:20.208Z,19.75
2022-11-29T07:46:20.196Z,19.77
2022-11-29T07:47:20.208Z,19.75
2022-11-29T07:48:20.166Z,19.78
2022-11-29T07:49:20.208Z,19.77
2022-11-29T07:50:20.079Z,19.78
2022-11-29T07:51:20.131Z,19.79
2022-11-29T07:52:20.135Z,19.79
2022-11-29T07:53:20.172Z,19.81
2022-11-29T07:54:20.087Z,19.81
2022-11-29T07:55:20.057Z,19.79
2022-11-29T07:56:20.061Z,19.79
2022-11-29T07:57:20.066Z,19.82
2022-11-29T07:58:20.136Z,19.84
2022-11-29T07:59:20.073Z,19.81
2022-11-29T08:00:20.040Z,19.79
2022-11-29T08:01:20.051Z,19.78
2022-11-29T08:02:19.982Z,19.74
2022-11-29T08:03:19.851Z,19.75
2022-11-29T08:04:19.859Z,19.74
2022-11-29T08:05:19.904Z,19.74
2022-11-29T08:06:19.876Z,19.72
2022-11-29T08:07:19.941Z,19.74
2022-11-29T08:08:20.762Z,19.74
2022-11-29T08:09:19.943Z,19.74
2022-11-29T08:10:19.861Z,19.71
2022-11-29T08:11:19.896Z,19.67
2022-11-29T08:12:19.811Z,19.64
2022-11-29T08:13:19.869Z,19.64
2022-11-29T08:14:19.905Z,19.62
2022-11-29T08:15:19.876Z,19.62
2022-11-29T08:16:19.943Z,19.63
2022-11-29T08:17:20.031Z,19.59
2022-11-29T08:18:19.840Z,19.60
2022-11-29T08:19:19.750Z,19.59
2022-11-29T08:20:19.830Z,19.57
2022-11-29T08:21:19.717Z,19.59
2022-11-29T08:22:19.736Z,19.60
2022-11-29T08:23:19.681Z,19.60
2022-11-29T08:24:19.806Z,19.57
2022-11-29T08:25:19.687Z,19.53
2022-11-29T08:26:19.749Z,19.52
2022-11-29T08:27:19.702Z,19.53
2022-11-29T08:28:19.605Z,19.49
2022-11-29T08:29:19.722Z,19.52
2022-11-29T08:30:19.684Z,19.53
2022-11-29T08:31:19.761Z,19.53
2022-11-29T08:32:19.691Z,19.49
2022-11-29T08:33:19.599Z,19.49
2022-11-29T08:34:19.612Z,19.47
2022-11-29T08:35:19.618Z,19.48
2022-11-29T08:36:19.560Z,19.48
2022-11-29T08:37:19.727Z,19.49
2022-11-29T08:38:19.628Z,19.52
2022-11-29T08:39:19.532Z,19.53
2022-11-29T08:40:19.550Z,19.56
2022-11-29T08:41:19.550Z,19.57
2022-11-29T08:42:20.167Z,19.60
2022-11-29T08:43:19.499Z,19.62
2022-11-29T08:44:19.507Z,19.60
2022-11-29T08:45:19.508Z,19.59
2022-11-29T08:46:19.572Z,19.59
2022-11-29T08:47:19.516Z,19.60
2022-11-29T08:48:19.529Z,19.60
2022-11-29T08:49:19.525Z,19.63
2022-11-29T08:50:19.434Z,19.63
2022-11-29T08:51:19.435Z,19.64
2022-11-29T08:52:19.441Z,19.64
2022-11-29T08:53:19.453Z,19.66
2022-11-29T08:54:19.458Z,19.67
2022-11-29T08:55:19.357Z,19.66
2022-11-29T08:58:19.382Z,19.64
2022-11-29T08:59:19.383Z,19.64
2022-11-29T09:00:19.402Z,19.66
2022-11-29T09:01:19.423Z,19.66
2022-11-29T09:02:19.391Z,19.67
2022-11-29T09:03:19.309Z,19.67
2022-11-29T09:04:19.276Z,19.62
2022-11-29T09:05:19.320Z,19.60
2022-11-29T09:06:19.329Z,19.62
2022-11-29T09:07:19.308Z,19.60
2022-11-29T09:08:19.238Z,19.62
2022-11-29T09:09:19.250Z,19.60
2022-11-29T09:10:19.252Z,19.62
2022-11-29T09:11:19.268Z,19.60
2022-11-29T09:12:19.274Z,19.62
2022-11-29T09:13:19.295Z,19.63
2022-11-29T09:14:19.173Z,19.62
2022-11-29T09:15:19.187Z,19.62
2022-11-29T09:16:19.218Z,19.60
2022-11-29T09:17:19.161Z,19.60
2022-11-29T09:18:19.170Z,19.60
2022-11-29T09:19:19.071Z,19.60
2022-11-29T09:20:19.078Z,19.62
2022-11-29T09:21:19.094Z,19.63
2022-11-29T09:22:19.192Z,19.63
2022-11-29T09:23:19.047Z,19.64
2022-11-29T09:24:19.104Z,19.66
2022-11-29T09:25:19.035Z,19.66
2022-11-29T09:26:19.115Z,19.66
2022-11-29T09:27:19.020Z,19.67
2022-11-29T09:28:19.058Z,19.70
2022-11-29T09:29:19.081Z,19.67
2022-11-29T09:30:23.552Z,19.67
2022-11-29T09:31:19.021Z,19.67
2022-11-29T09:32:19.054Z,19.66
2022-11-29T09:33:18.957Z,19.64
2022-11-29T09:34:19.065Z,19.64
2022-11-29T09:35:19.011Z,19.64
2022-11-29T09:36:22.577Z,19.66
2022-11-29T09:37:18.884Z,19.67
2022-11-29T09:38:19.240Z,19.70
2022-11-29T09:39:18.892Z,19.66
2022-11-29T09:40:18.841Z,19.67
2022-11-29T09:41:18.956Z,19.67
2022-11-29T09:42:18.917Z,19.71
2022-11-29T09:43:18.857Z,19.71
2022-11-29T09:44:18.969Z,19.74
2022-11-29T09:45:18.875Z,19.77
2022-11-29T09:46:18.884Z,19.81
2022-11-29T09:47:18.990Z,19.84
2022-11-29T09:48:18.871Z,19.85
2022-11-29T09:49:18.758Z,19.89
2022-11-29T09:50:18.822Z,19.89
2022-11-29T09:51:18.790Z,19.87
2022-11-29T09:52:18.785Z,19.84
2022-11-29T09:53:18.739Z,19.84
2022-11-29T09:54:19.038Z,19.82
2022-11-29T09:55:18.737Z,19.79
2022-11-29T09:56:18.847Z,19.81
2022-11-29T09:57:18.803Z,19.84
2022-11-29T09:58:18.737Z,19.87
2022-11-29T09:59:18.740Z,19.89
2022-11-29T10:00:18.776Z,19.90
2022-11-29T10:01:18.663Z,19.90
2022-11-29T10:02:21.583Z,19.92
2022-11-29T10:03:18.692Z,19.92
2022-11-29T10:04:18.702Z,19.94
2022-11-29T10:05:19.293Z,19.96
2022-11-29T10:06:18.685Z,19.96
2022-11-29T10:07:18.785Z,20.00
2022-11-29T10:08:18.626Z,20.03
2022-11-29T10:09:18.534Z,20.07
2022-11-29T10:10:18.670Z,20.07
2022-11-29T10:11:18.548Z,20.03
2022-11-29T10:12:18.516Z,20.03
2022-11-29T10:13:18.525Z,20.04
2022-11-29T10:14:18.540Z,20.04
2022-11-29T10:15:18.538Z,20.07
2022-11-29T10:16:18.671Z,20.11
2022-11-29T10:17:19.264Z,20.10
2022-11-29T10:18:18.566Z,20.11
2022-11-29T10:19:18.475Z,20.12
2022-11-29T10:20:18.522Z,20.14
2022-11-29T10:21:18.417Z,20.18
2022-11-29T10:22:18.496Z,20.18
2022-11-29T10:23:18.495Z,20.19
2022-11-29T10:24:18.510Z,20.19
2022-11-29T10:25:18.498Z,20.19
2022-11-29T10:26:18.401Z,20.19
2022-11-29T10:27:18.356Z,20.22
2022-11-29T10:28:18.395Z,20.27
2022-11-29T10:29:18.368Z,20.26
2022-11-29T10:30:18.448Z,20.27
2022-11-29T10:31:18.384Z,20.29
2022-11-29T10:32:18.440Z,20.29
2022-11-29T10:33:18.289Z,20.29
2022-11-29T10:34:18.350Z,20.29
2022-11-29T10:35:18.340Z,20.32
2022-11-29T10:36:18.354Z,20.33
2022-11-29T10:37:18.362Z,20.36
2022-11-29T10:38:33.737Z,20.39
2022-11-29T10:39:18.268Z,20.40
2022-11-29T10:40:18.235Z,20.40
2022-11-29T10:41:18.278Z,20.48
2022-11-29T10:42:18.291Z,20.49
2022-11-29T10:43:18.206Z,20.53
2022-11-29T10:44:18.306Z,20.55
2022-11-29T10:45:18.214Z,20.58
2022-11-29T10:46:18.249Z,20.60
2022-11-29T10:47:18.225Z,20.63
2022-11-29T10:48:18.236Z,20.66
2022-11-29T10:49:18.149Z,20.70
2022-11-29T10:50:18.157Z,20.73
2022-11-29T10:51:18.100Z,20.74
2022-11-29T10:52:18.154Z,20.77
2022-11-29T10:53:18.163Z,20.78
2022-11-29T10:54:18.167Z,20.80
2022-11-29T10:55:18.081Z,20.83
2022-11-29T10:56:18.020Z,20.83
2022-11-29T10:57:18.019Z,20.83
2022-11-29T10:58:20.893Z,20.85
2022-11-29T10:59:18.731Z,20.83
2022-11-29T11:00:18.112Z,20.82
2022-11-29T11:01:18.015Z,20.83
2022-11-29T11:02:18.011Z,20.85
2022-11-29T11:03:18.018Z,20.86
2022-11-29T11:04:17.966Z,20.88
2022-11-29T11:05:18.111Z,20.88
2022-11-29T11:06:17.978Z,20.89
2022-11-29T11:07:17.967Z,20.90
2022-11-29T11:08:17.956Z,20.92
2022-11-29T11:09:17.898Z,20.93
2022-11-29T11:10:17.901Z,20.89
2022-11-29T11:11:17.899Z,20.92
2022-11-29T11:12:17.886Z,20.92
2022-11-29T11:13:17.881Z,20.93
2022-11-29T11:14:17.835Z,20.95
2022-11-29T11:15:17.834Z,20.96
2022-11-29T11:16:18.001Z,21.00
2022-11-29T11:17:17.855Z,21.03
2022-11-29T11:18:17.815Z,21.05
2022-11-29T11:19:17.821Z,21.08
2022-11-29T11:20:17.827Z,21.10
2022-11-29T11:21:17.863Z,21.11
2022-11-29T11:22:17.854Z,21.13
2022-11-29T11:23:17.782Z,21.14
2022-11-29T11:24:17.745Z,21.13
2022-11-29T11:25:17.768Z,21.14
2022-11-29T11:26:17.772Z,21.19
2022-11-29T11:27:17.708Z,21.22
2022-11-29T11:28:17.774Z,21.23
2022-11-29T11:29:17.726Z,21.26
2022-11-29T11:30:17.692Z,21.28
2022-11-29T11:31:17.711Z,21.30
2022-11-29T11:32:17.733Z,21.32
2022-11-29T11:33:17.715Z,21.35
2022-11-29T11:34:17.652Z,21.37
2022-11-29T11:35:18.612Z,21.41
2022-11-29T11:36:17.665Z,21.40
2022-11-29T11:37:17.775Z,21.38
2022-11-29T11:38:17.649Z,21.38
2022-11-29T11:39:17.583Z,21.38
2022-11-29T11:40:17.746Z,21.38
2022-11-29T11:41:17.566Z,21.33
2022-11-29T11:42:17.552Z,21.30
2022-11-29T11:43:17.581Z,21.29
2022-11-29T11:44:45.625Z,21.28
2022-11-29T11:45:17.601Z,21.29
2022-11-29T11:46:18.224Z,21.30
2022-11-29T11:47:17.501Z,21.35
2022-11-29T11:48:17.542Z,21.38
2022-11-29T11:49:17.524Z,21.41
2022-11-29T11:50:17.846Z,21.47
2022-11-29T11:51:17.475Z,21.53
2022-11-29T11:52:17.483Z,21.56
2022-11-29T11:53:17.447Z,21.60
2022-11-29T11:54:17.468Z,21.65
2022-11-29T11:55:17.467Z,21.70
2022-11-29T11:56:17.475Z,21.72
2022-11-29T11:57:17.457Z,21.75
2022-11-29T11:58:17.472Z,21.78
2022-11-29T11:59:17.614Z,21.80
2022-11-29T12:00:34.442Z,21.84
2022-11-29T12:01:17.404Z,21.89
2022-11-29T12:02:19.392Z,21.94
2022-11-29T12:03:18.153Z,21.99
2022-11-29T12:04:17.440Z,22.03
2022-11-29T12:05:17.263Z,22.04
2022-11-29T12:06:17.337Z,22.06
2022-11-29T12:07:17.379Z,22.10
2022-11-29T12:08:17.910Z,22.14
2022-11-29T12:09:17.354Z,22.19
2022-11-29T12:10:17.345Z,22.22
2022-11-29T12:11:17.287Z,22.26
2022-11-29T12:12:17.264Z,22.33
2022-11-29T12:13:17.365Z,22.37
2022-11-29T12:14:17.282Z,22.44
2022-11-29T12:15:17.311Z,22.47
2022-11-29T12:16:17.337Z,22.51
2022-11-29T12:17:20.185Z,22.53
2022-11-29T12:18:17.198Z,22.53
2022-11-29T12:19:17.217Z,22.52
2022-11-29T12:20:17.317Z,22.51
2022-11-29T12:21:17.841Z,22.49
2022-11-29T12:22:17.234Z,22.47
2022-11-29T12:23:17.138Z,22.46
2022-11-29T12:24:17.254Z,22.51
2022-11-29T12:25:17.158Z,22.53
2022-11-29T12:26:48.506Z,22.59
2022-11-29T12:27:17.203Z,22.62
2022-11-29T12:28:20.548Z,22.63
2022-11-29T12:29:17.681Z,22.62
2022-11-29T12:30:17.080Z,22.61
2022-11-29T12:31:17.106Z,22.61
2022-11-29T12:32:17.069Z,22.67
2022-11-29T12:33:17.097Z,22.73
2022-11-29T12:34:22.005Z,22.84
2022-11-29T12:35:18.938Z,22.93
2022-11-29T12:36:17.020Z,23.04
2022-11-29T12:37:17.018Z,23.16
2022-11-29T12:38:17.045Z,23.28
2022-11-29T12:39:17.036Z,23.36
2022-11-29T12:40:16.952Z,23.47
2022-11-29T12:41:16.968Z,23.56
2022-11-29T12:42:16.953Z,23.67
2022-11-29T12:43:16.942Z,23.79
2022-11-29T12:44:17.433Z,23.88
2022-11-29T12:45:16.976Z,23.89
2022-11-29T12:46:17.014Z,23.99
2022-11-29T12:48:17.608Z,24.19
2022-11-29T12:49:16.898Z,24.28
2022-11-29T12:50:16.904Z,24.36
2022-11-29T12:51:16.914Z,24.41
2022-11-29T12:52:16.927Z,24.46
2022-11-29T12:53:16.826Z,24.50
2022-11-29T12:54:16.837Z,24.59
2022-11-29T12:55:17.054Z,24.59